Lodestar Genesis — S6BJ3 — position and weather

sailwx.info

Track history (hours):
 
Tides and Currents Weather Stations Pressure Air Temp Water Temp Dewpoint Dewpoint Depression Visibility Wind Speed Wind Dir Waves Ship Positions

Lodestar Genesis

Last reported at 2018-Feb-14 17:31 UTC. Time now 2018-Feb-22 07:02 UTC.
Position N 13°39' E 121°01'.

Length 134 m; draft 8.8 m.

Type: Ship (hazmat cat B). MMSI: 566726000.

Date/timePositionNaut miles runAvg speedWind from/ knotsBaromVisibWave heightAir tempDewpointWater temp
2018-Feb-14 17:31N 13°39' E 121°01'0 5.6
2018-Feb-14 17:30N 13°39' E 121°01'52510.6
2018-Feb-12 15:47N 22°21' E 120°01'312.1
2018-Feb-12 15:30N 22°24' E 120°03'612.2
2018-Feb-12 15:00N 22°29' E 120°07'611.7
2018-Feb-12 14:30N 22°34' E 120°09'510.6
2018-Feb-12 14:00N 22°38' E 120°13'4 8.8
2018-Feb-12 13:30N 22°36' E 120°17'1 1.4
2018-Feb-12 13:00N 22°35' E 120°18'0 0.0
2018-Feb-12 12:30N 22°35' E 120°18'0 0.0
2018-Feb-12 11:51N 22°35' E 120°18'0 0.0
2018-Feb-12 11:30N 22°35' E 120°18'0 0.0
2018-Feb-12 10:57N 22°35' E 120°18'0 0.0
2018-Feb-12 10:27N 22°35' E 120°18'0 0.0
2018-Feb-12 09:45N 22°35' E 120°18'0 0.0
2018-Feb-12 09:30N 22°35' E 120°18'0 0.0
2018-Feb-12 09:00N 22°35' E 120°18'0 0.0
2018-Feb-12 08:30N 22°35' E 120°18'0 0.0
2018-Feb-12 08:00N 22°35' E 120°18'0 0.0
2018-Feb-12 07:30N 22°35' E 120°18'0 0.0
2018-Feb-12 07:00N 22°35' E 120°18'0 0.0
2018-Feb-12 06:27N 22°35' E 120°18'0 0.0
2018-Feb-12 06:00N 22°35' E 120°18'0 0.1
2018-Feb-12 05:30N 22°35' E 120°18'1 2.8
2018-Feb-12 05:00N 22°36' E 120°18'1 1.5
2018-Feb-12 04:22N 22°36' E 120°18'0 0.0
2018-Feb-12 03:52N 22°36' E 120°18'0 0.0
2018-Feb-12 03:28N 22°36' E 120°18'0 0.0
2018-Feb-12 02:58N 22°36' E 120°18'0 0.0
2018-Feb-12 02:28N 22°36' E 120°18'0 0.0
2018-Feb-12 01:58N 22°36' E 120°18'0 0.0
2018-Feb-12 01:28N 22°36' E 120°18'0 0.0
2018-Feb-12 00:58N 22°36' E 120°18'0 0.0
2018-Feb-12 00:28N 22°36' E 120°18'0 0.0
2018-Feb-11 23:58N 22°36' E 120°18'0 0.0
2018-Feb-11 23:28N 22°36' E 120°18'0 0.0
2018-Feb-11 22:58N 22°36' E 120°18'0 0.0
2018-Feb-11 22:28N 22°36' E 120°18'0 0.0
2018-Feb-11 21:58N 22°36' E 120°18'0 0.0
2018-Feb-11 21:28N 22°36' E 120°18'0 0.0
2018-Feb-11 20:58N 22°36' E 120°18'0 0.0
2018-Feb-11 20:28N 22°36' E 120°18'0 0.0
2018-Feb-11 19:58N 22°36' E 120°18'0 0.0
2018-Feb-11 19:28N 22°36' E 120°18'0 0.0
2018-Feb-11 18:58N 22°36' E 120°18'0 0.0
2018-Feb-11 18:28N 22°36' E 120°18'0 0.0
2018-Feb-11 17:58N 22°36' E 120°18'0 0.0
2018-Feb-11 17:28N 22°36' E 120°18'0 0.0
2018-Feb-11 16:55N 22°36' E 120°18'0 0.0
2018-Feb-11 16:28N 22°36' E 120°18'0 0.0
2018-Feb-11 15:58N 22°36' E 120°18'0 0.0
2018-Feb-11 15:22N 22°36' E 120°18'0 0.0
2018-Feb-11 14:58N 22°36' E 120°18'0 0.0
2018-Feb-11 14:25N 22°36' E 120°18'0 0.0
2018-Feb-11 13:58N 22°36' E 120°18'0 0.0
2018-Feb-11 13:29N 22°36' E 120°18'1 1.8
2018-Feb-11 13:00N 22°36' E 120°18'3 6.3
2018-Feb-11 12:30N 22°37' E 120°14'3 7.0
2018-Feb-11 12:00N 22°38' E 120°11'611.6
2018-Feb-11 11:30N 22°42' E 120°06'612.0
2018-Feb-11 11:00N 22°47' E 120°02'611.9
2018-Feb-11 10:30N 22°51' E 119°57'611.6
2018-Feb-11 09:57N 22°56' E 119°54'2912.9
2018-Feb-11 07:43N 23°25' E 119°54'313.1
2018-Feb-11 07:30N 23°28' E 119°55'713.7
2018-Feb-11 07:00N 23°35' E 119°55'  
Track history (hours):
 
Tides and Currents Weather Stations Pressure Air Temp Water Temp Dewpoint Dewpoint Depression Visibility Wind Speed Wind Dir Waves Ship Positions

Lodestar Genesis

Last reported at 2018-Feb-14 17:31 UTC. Time now 2018-Feb-22 07:02 UTC.
Position N 13°39' E 121°01'.

Length 134 m; draft 8.8 m.

Type: Ship (hazmat cat B). MMSI: 566726000.

Date/timePositionNaut miles runAvg speedWind from/ knotsBaromVisibWave heightAir tempDewpointWater temp
2018-Feb-14 17:31N 13°39' E 121°01'0 5.6
2018-Feb-14 17:30N 13°39' E 121°01'52510.6
2018-Feb-12 15:47N 22°21' E 120°01'312.1
2018-Feb-12 15:30N 22°24' E 120°03'612.2
2018-Feb-12 15:00N 22°29' E 120°07'611.7
2018-Feb-12 14:30N 22°34' E 120°09'510.6
2018-Feb-12 14:00N 22°38' E 120°13'4 8.8
2018-Feb-12 13:30N 22°36' E 120°17'1 1.4
2018-Feb-12 13:00N 22°35' E 120°18'0 0.0
2018-Feb-12 12:30N 22°35' E 120°18'0 0.0
2018-Feb-12 11:51N 22°35' E 120°18'0 0.0
2018-Feb-12 11:30N 22°35' E 120°18'0 0.0
2018-Feb-12 10:57N 22°35' E 120°18'0 0.0
2018-Feb-12 10:27N 22°35' E 120°18'0 0.0
2018-Feb-12 09:45N 22°35' E 120°18'0 0.0
2018-Feb-12 09:30N 22°35' E 120°18'0 0.0
2018-Feb-12 09:00N 22°35' E 120°18'0 0.0
2018-Feb-12 08:30N 22°35' E 120°18'0 0.0
2018-Feb-12 08:00N 22°35' E 120°18'0 0.0
2018-Feb-12 07:30N 22°35' E 120°18'0 0.0
2018-Feb-12 07:00N 22°35' E 120°18'0 0.0
2018-Feb-12 06:27N 22°35' E 120°18'0 0.0
2018-Feb-12 06:00N 22°35' E 120°18'0 0.1
2018-Feb-12 05:30N 22°35' E 120°18'1 2.8
2018-Feb-12 05:00N 22°36' E 120°18'1 1.5
2018-Feb-12 04:22N 22°36' E 120°18'0 0.0
2018-Feb-12 03:52N 22°36' E 120°18'0 0.0
2018-Feb-12 03:28N 22°36' E 120°18'0 0.0
2018-Feb-12 02:58N 22°36' E 120°18'0 0.0
2018-Feb-12 02:28N 22°36' E 120°18'0 0.0
2018-Feb-12 01:58N 22°36' E 120°18'0 0.0
2018-Feb-12 01:28N 22°36' E 120°18'0 0.0
2018-Feb-12 00:58N 22°36' E 120°18'0 0.0
2018-Feb-12 00:28N 22°36' E 120°18'0 0.0
2018-Feb-11 23:58N 22°36' E 120°18'0 0.0
2018-Feb-11 23:28N 22°36' E 120°18'0 0.0
2018-Feb-11 22:58N 22°36' E 120°18'0 0.0
2018-Feb-11 22:28N 22°36' E 120°18'0 0.0
2018-Feb-11 21:58N 22°36' E 120°18'0 0.0
2018-Feb-11 21:28N 22°36' E 120°18'0 0.0
2018-Feb-11 20:58N 22°36' E 120°18'0 0.0
2018-Feb-11 20:28N 22°36' E 120°18'0 0.0
2018-Feb-11 19:58N 22°36' E 120°18'0 0.0
2018-Feb-11 19:28N 22°36' E 120°18'0 0.0
2018-Feb-11 18:58N 22°36' E 120°18'0 0.0
2018-Feb-11 18:28N 22°36' E 120°18'0 0.0
2018-Feb-11 17:58N 22°36' E 120°18'0 0.0
2018-Feb-11 17:28N 22°36' E 120°18'0 0.0
2018-Feb-11 16:55N 22°36' E 120°18'0 0.0
2018-Feb-11 16:28N 22°36' E 120°18'0 0.0
2018-Feb-11 15:58N 22°36' E 120°18'0 0.0
2018-Feb-11 15:22N 22°36' E 120°18'0 0.0
2018-Feb-11 14:58N 22°36' E 120°18'0 0.0
2018-Feb-11 14:25N 22°36' E 120°18'0 0.0
2018-Feb-11 13:58N 22°36' E 120°18'0 0.0
2018-Feb-11 13:29N 22°36' E 120°18'1 1.8
2018-Feb-11 13:00N 22°36' E 120°18'3 6.3
2018-Feb-11 12:30N 22°37' E 120°14'3 7.0
2018-Feb-11 12:00N 22°38' E 120°11'611.6
2018-Feb-11 11:30N 22°42' E 120°06'612.0
2018-Feb-11 11:00N 22°47' E 120°02'611.9
2018-Feb-11 10:30N 22°51' E 119°57'611.6
2018-Feb-11 09:57N 22°56' E 119°54'2912.9
2018-Feb-11 07:43N 23°25' E 119°54'313.1
2018-Feb-11 07:30N 23°28' E 119°55'713.7
2018-Feb-11 07:00N 23°35' E 119°55'  

Dump ship's entire track history